createdAt,value
2022-07-28T00:00:19.511Z,60.4
2022-07-28T00:05:17.665Z,60.3
2022-07-28T00:10:19.585Z,60.2
2022-07-28T00:15:19.548Z,60.1
2022-07-28T00:20:16.569Z,60.0
2022-07-28T00:25:19.605Z,59.8
2022-07-28T00:30:16.563Z,59.7
2022-07-28T00:35:30.312Z,60.0
2022-07-28T00:40:19.590Z,59.9
2022-07-28T00:45:16.568Z,59.8
2022-07-28T00:50:19.609Z,60.1
2022-07-28T00:55:19.570Z,60.0
2022-07-28T01:00:19.562Z,60.3
2022-07-28T01:05:16.586Z,60.2
2022-07-28T01:10:20.845Z,60.1
2022-07-28T01:15:19.537Z,60.5
2022-07-28T01:20:16.603Z,60.3
2022-07-28T01:25:19.882Z,60.6
2022-07-28T01:30:19.663Z,60.6
2022-07-28T01:35:16.595Z,60.5
2022-07-28T01:40:19.664Z,60.5
2022-07-28T01:45:20.785Z,60.4
2022-07-28T01:50:16.601Z,60.4
2022-07-28T01:55:19.628Z,60.3
2022-07-28T02:00:16.578Z,60.7
2022-07-28T02:05:22.042Z,60.7
2022-07-28T02:10:19.658Z,60.6
2022-07-28T02:15:19.599Z,60.6
2022-07-28T02:20:20.705Z,60.9
2022-07-28T02:25:16.607Z,60.9
2022-07-28T02:30:19.692Z,60.8
2022-07-28T02:35:19.621Z,60.8
2022-07-28T02:40:16.609Z,60.7
2022-07-28T02:45:19.625Z,60.6
2022-07-28T02:50:19.613Z,60.6
2022-07-28T02:55:17.864Z,60.5
2022-07-28T03:00:19.627Z,60.4
2022-07-28T03:05:16.788Z,60.8
2022-07-28T03:10:32.819Z,60.8
2022-07-28T03:15:19.651Z,60.3
2022-07-28T03:20:16.629Z,60.7
2022-07-28T03:25:20.827Z,60.7
2022-07-28T03:30:16.625Z,60.6
2022-07-28T03:35:19.620Z,60.5
2022-07-28T03:40:19.672Z,60.4
2022-07-28T03:45:19.679Z,60.4
2022-07-28T03:50:19.632Z,60.4
2022-07-28T03:55:16.638Z,60.7
2022-07-28T04:00:20.148Z,60.7
2022-07-28T04:05:18.927Z,60.6
2022-07-28T04:10:18.885Z,60.6
2022-07-28T04:15:18.893Z,60.5
2022-07-28T04:20:15.894Z,60.5
2022-07-28T04:25:18.905Z,60.5
2022-07-28T04:30:18.956Z,60.8
2022-07-28T04:35:17.768Z,60.9
2022-07-28T04:40:18.895Z,60.8
2022-07-28T04:45:18.913Z,60.9
2022-07-28T04:50:18.929Z,60.9
2022-07-28T04:55:18.884Z,60.9
2022-07-28T05:00:15.957Z,60.9
2022-07-28T05:05:20.127Z,60.9
2022-07-28T05:10:18.917Z,60.8
2022-07-28T05:15:18.893Z,60.8
2022-07-28T05:20:18.878Z,60.7
2022-07-28T05:25:15.909Z,60.7
2022-07-28T05:30:19.007Z,60.7
2022-07-28T05:35:16.030Z,60.6
2022-07-28T05:40:20.092Z,61.0
2022-07-28T05:45:18.938Z,60.9
2022-07-28T05:50:15.944Z,60.9
2022-07-28T05:55:18.905Z,60.8
2022-07-28T06:00:15.937Z,60.8
2022-07-28T06:05:18.999Z,61.1
2022-07-28T06:10:15.761Z,61.1
2022-07-28T06:15:20.292Z,61.1
2022-07-28T06:20:19.014Z,61.1
2022-07-28T06:25:15.982Z,61.0
2022-07-28T06:30:19.081Z,61.0
2022-07-28T06:35:18.919Z,60.9
2022-07-28T06:40:18.951Z,60.9
2022-07-28T06:45:19.570Z,60.8
2022-07-28T06:50:26.249Z,60.9
2022-07-28T06:55:18.985Z,60.9
2022-07-28T07:00:16.024Z,60.8
2022-07-28T07:05:18.947Z,60.8
2022-07-28T07:10:18.980Z,60.8
2022-07-28T07:15:16.005Z,60.7
2022-07-28T07:20:20.199Z,60.7
2022-07-28T07:25:16.055Z,61.1
2022-07-28T07:30:18.958Z,61.0
2022-07-28T07:35:15.977Z,61.0
2022-07-28T07:40:18.998Z,60.9
2022-07-28T07:45:16.020Z,60.8
2022-07-28T07:50:19.039Z,60.8
2022-07-28T07:55:20.051Z,60.8
2022-07-28T08:00:29.232Z,60.7
2022-07-28T08:05:18.959Z,60.6
2022-07-28T08:10:18.980Z,60.6
2022-07-28T08:15:19.011Z,60.6
2022-07-28T08:20:16.019Z,60.6
2022-07-28T08:25:18.981Z,60.5
2022-07-28T08:30:23.742Z,60.8
2022-07-28T08:35:33.096Z,60.8
2022-07-28T08:40:18.983Z,60.7
2022-07-28T08:45:19.000Z,60.7
2022-07-28T08:50:18.988Z,60.7
2022-07-28T08:55:19.793Z,60.6
2022-07-28T09:00:16.011Z,60.6
2022-07-28T09:05:20.204Z,60.6
2022-07-28T09:10:16.043Z,60.9
2022-07-28T09:15:19.022Z,60.9
2022-07-28T09:20:18.996Z,60.9
2022-07-28T09:25:18.972Z,60.9
2022-07-28T09:30:19.001Z,60.8
2022-07-28T09:35:16.051Z,60.8
2022-07-28T09:40:22.565Z,61.2
2022-07-28T09:45:23.779Z,61.2
2022-07-28T09:50:19.036Z,61.2
2022-07-28T09:55:19.027Z,61.7
2022-07-28T10:00:19.073Z,61.7
2022-07-28T10:05:15.907Z,61.8
2022-07-28T10:10:19.015Z,61.7
2022-07-28T10:15:20.308Z,62.1
2022-07-28T10:20:16.155Z,62.1
2022-07-28T10:25:16.055Z,62.2
2022-07-28T10:30:19.117Z,62.3
2022-07-28T10:35:19.079Z,62.8
2022-07-28T10:40:16.057Z,62.9
2022-07-28T10:45:19.093Z,63.1
2022-07-28T10:50:20.274Z,63.2
2022-07-28T10:55:16.156Z,63.4
2022-07-28T11:00:25.619Z,63.6
2022-07-28T11:05:19.087Z,64.2
2022-07-28T11:10:16.124Z,64.1
2022-07-28T11:15:19.791Z,64.7
2022-07-28T11:20:27.499Z,65.1
2022-07-28T11:25:19.514Z,65.5
2022-07-28T11:30:19.333Z,65.9
2022-07-28T11:35:19.020Z,66.3
2022-07-28T11:40:19.070Z,66.4
2022-07-28T11:45:16.148Z,67.2
2022-07-28T11:50:19.119Z,67.4
2022-07-28T11:55:20.135Z,67.4
2022-07-28T12:00:19.057Z,67.6
2022-07-28T12:05:19.058Z,67.4
2022-07-28T12:10:37.092Z,68.0
2022-07-28T12:15:16.120Z,67.9
2022-07-28T12:20:16.107Z,68.1
2022-07-28T12:25:20.048Z,68.3
2022-07-28T12:30:20.446Z,68.4
2022-07-28T12:35:19.081Z,68.6
2022-07-28T12:40:19.083Z,68.5
2022-07-28T12:45:19.154Z,68.8
2022-07-28T12:50:16.158Z,68.9
2022-07-28T12:55:19.101Z,69.3
2022-07-28T13:00:19.699Z,69.0
2022-07-28T13:05:20.333Z,69.3
2022-07-28T13:10:16.128Z,69.0
2022-07-28T13:15:19.138Z,69.3
2022-07-28T13:20:19.141Z,69.6
2022-07-28T13:25:19.112Z,69.2
2022-07-28T13:30:19.122Z,69.3
2022-07-28T13:35:21.178Z,70.2
2022-07-28T13:40:20.295Z,69.3
2022-07-28T13:45:17.137Z,69.0
2022-07-28T13:50:19.146Z,69.9
2022-07-28T13:55:19.836Z,70.0
2022-07-28T14:00:15.974Z,69.7
2022-07-28T14:05:19.210Z,69.4
2022-07-28T14:10:19.180Z,69.8
2022-07-28T14:15:20.202Z,69.9
2022-07-28T14:20:19.138Z,70.1
2022-07-28T14:25:20.893Z,70.7
2022-07-28T14:30:19.145Z,70.4
2022-07-28T14:35:16.131Z,70.8
2022-07-28T14:40:16.158Z,70.9
2022-07-28T14:45:19.129Z,71.8
2022-07-28T14:50:17.260Z,71.3
2022-07-28T14:55:19.154Z,71.6
2022-07-28T15:00:19.297Z,71.4
2022-07-28T15:05:16.226Z,71.8
2022-07-28T15:10:19.123Z,71.5
2022-07-28T15:15:16.152Z,71.8
2022-07-28T15:20:16.206Z,71.8
2022-07-28T15:25:17.524Z,71.5
2022-07-28T15:30:19.168Z,72.2
2022-07-28T15:35:19.837Z,72.2
2022-07-28T15:40:19.141Z,72.0
2022-07-28T15:45:19.142Z,72.7
2022-07-28T15:50:16.222Z,71.5
2022-07-28T15:55:20.511Z,71.3
2022-07-28T16:00:19.194Z,71.0
2022-07-28T16:05:19.138Z,71.2
2022-07-28T16:10:16.212Z,71.5
2022-07-28T16:15:16.231Z,71.4
2022-07-28T16:20:19.216Z,70.9
2022-07-28T16:25:16.497Z,71.5
2022-07-28T16:30:17.545Z,71.3
2022-07-28T16:35:16.180Z,71.5
2022-07-28T16:40:16.210Z,71.3
2022-07-28T16:45:19.316Z,71.7
2022-07-28T16:50:19.251Z,71.5
2022-07-28T16:55:21.460Z,71.7
2022-07-28T17:00:16.236Z,72.3
2022-07-28T17:05:20.367Z,72.5
2022-07-28T17:10:20.162Z,72.2
2022-07-28T17:15:22.210Z,72.9
2022-07-28T17:20:19.210Z,72.2
2022-07-28T17:26:35.563Z,72.7
2022-07-28T17:30:19.191Z,72.4
2022-07-28T17:35:34.196Z,72.3
2022-07-28T17:40:20.403Z,72.2
2022-07-28T17:45:19.273Z,72.7
2022-07-28T17:50:19.202Z,72.5
2022-07-28T17:55:19.218Z,72.2
2022-07-28T18:00:19.205Z,73.5
2022-07-28T18:05:19.259Z,74.1
2022-07-28T18:10:19.219Z,74.9
2022-07-28T18:15:20.359Z,73.7
2022-07-28T18:20:19.209Z,74.4
2022-07-28T18:25:19.229Z,73.7
2022-07-28T18:30:19.253Z,73.5
2022-07-28T18:35:19.250Z,73.7
2022-07-28T18:40:19.226Z,72.8
2022-07-28T18:45:16.272Z,72.5
2022-07-28T18:50:30.603Z,73.0
2022-07-28T18:55:16.283Z,72.8
2022-07-28T19:00:19.256Z,72.6
2022-07-28T19:05:19.326Z,72.5
2022-07-28T19:10:19.255Z,72.5
2022-07-28T19:15:19.384Z,72.5
2022-07-28T19:20:16.295Z,72.4
2022-07-28T19:25:17.705Z,72.2
2022-07-28T19:30:19.315Z,72.6
2022-07-28T19:35:16.299Z,72.8
2022-07-28T19:40:19.336Z,72.2
2022-07-28T19:45:19.272Z,72.1
2022-07-28T19:50:19.251Z,72.5
2022-07-28T19:55:20.522Z,72.4
2022-07-28T20:00:19.301Z,72.6
2022-07-28T20:05:16.304Z,72.0
2022-07-28T20:10:19.337Z,72.5
2022-07-28T20:15:19.277Z,72.7
2022-07-28T20:20:19.268Z,72.4
2022-07-28T20:25:19.253Z,72.5
2022-07-28T20:30:20.644Z,72.4
2022-07-28T20:35:19.271Z,72.3
2022-07-28T20:40:19.264Z,72.2
2022-07-28T20:45:19.259Z,72.7
2022-07-28T20:50:19.277Z,72.1
2022-07-28T20:55:19.267Z,71.9
2022-07-28T21:00:19.312Z,71.8
2022-07-28T21:05:26.751Z,71.7
2022-07-28T21:10:19.308Z,71.6
2022-07-28T21:15:19.300Z,71.3
2022-07-28T21:20:19.309Z,71.3
2022-07-28T21:25:16.338Z,71.2
2022-07-28T21:30:19.368Z,71.6
2022-07-28T21:35:19.296Z,71.6
2022-07-28T21:40:20.584Z,72.1
2022-07-28T21:45:19.301Z,72.1
2022-07-28T21:50:19.303Z,72.5
2022-07-28T21:55:19.298Z,72.4
2022-07-28T22:00:16.335Z,72.3
2022-07-28T22:05:19.430Z,72.2
2022-07-28T22:10:19.346Z,72.5
2022-07-28T22:15:20.541Z,72.4
2022-07-28T22:20:19.340Z,72.3
2022-07-28T22:25:19.332Z,72.2
2022-07-28T22:30:19.323Z,72.2
2022-07-28T22:35:19.332Z,72.3
2022-07-28T22:40:16.378Z,72.1
2022-07-28T22:45:49.756Z,71.9
2022-07-28T22:50:21.010Z,72.2
2022-07-28T22:56:55.752Z,72.1
2022-07-28T23:00:19.487Z,72.0
2022-07-28T23:05:19.420Z,71.9
2022-07-28T23:10:16.491Z,72.1
2022-07-28T23:15:16.466Z,71.9
2022-07-28T23:20:16.393Z,71.8
2022-07-28T23:25:20.815Z,71.5
2022-07-28T23:30:19.454Z,71.4
2022-07-28T23:35:19.466Z,71.3
2022-07-28T23:40:19.393Z,71.1
2022-07-28T23:45:16.446Z,71.4
2022-07-28T23:50:19.461Z,71.3
2022-07-28T23:55:19.733Z,71.1
